createdAt,value
2023-05-20T00:02:03.485Z,15.00
2023-05-20T00:08:11.506Z,16.33
2023-05-20T00:14:17.708Z,16.33
2023-05-20T00:20:19.873Z,16.33
2023-05-20T00:26:23.280Z,17.00
2023-05-20T00:32:31.201Z,15.00
2023-05-20T00:38:34.515Z,16.33
2023-05-20T00:44:42.378Z,11.33
2023-05-20T00:50:46.438Z,16.67
2023-05-20T00:56:49.954Z,14.67
2023-05-20T01:03:02.617Z,16.67
2023-05-20T01:09:11.758Z,16.33
2023-05-20T01:15:26.630Z,18.00
2023-05-20T01:21:32.587Z,17.67
2023-05-20T01:27:37.963Z,15.33
2023-05-20T01:33:46.792Z,16.67
2023-05-20T01:39:57.285Z,18.00
2023-05-20T01:46:02.667Z,17.33
2023-05-20T01:52:06.452Z,15.67
2023-05-20T01:58:11.009Z,15.67
2023-05-20T02:04:15.462Z,18.33
2023-05-20T02:10:22.028Z,21.00
2023-05-20T02:16:25.315Z,17.67
2023-05-20T02:22:31.328Z,19.67
2023-05-20T02:28:38.009Z,18.67
2023-05-20T02:34:43.412Z,17.67
2023-05-20T02:40:51.847Z,20.00
2023-05-20T02:46:54.200Z,20.00
2023-05-20T02:53:01.194Z,18.00
2023-05-20T02:59:05.807Z,20.25
2023-05-20T03:05:15.348Z,20.67
2023-05-20T03:11:22.299Z,20.67
2023-05-20T03:17:28.502Z,19.67
2023-05-20T03:23:38.043Z,21.67
2023-05-20T03:29:44.606Z,20.25
2023-05-20T03:35:47.176Z,21.33
2023-05-20T03:41:53.576Z,22.00
2023-05-20T03:48:02.271Z,19.33
2023-05-20T03:54:12.710Z,20.33
2023-05-20T04:00:22.250Z,21.67
2023-05-20T04:06:29.373Z,23.00
2023-05-20T04:12:39.355Z,21.00
2023-05-20T04:25:00.618Z,20.00
